Time;durP1;ratioP1;P1;durP2;ratioP2;P2;SDS_P1;SDS_P2;PMS_P1;PMS_P2;Temp;Humidity;BMP_temperature;BMP_pressure;BME280_temperature;BME280_humidity;BME280_pressure;Samples;Min_cycle;Max_cycle;Signal;HPM_P1;HPM_P2
2022/09/29 00:02:08;;;;;;;10.15;4.93;;;;;;;7.35;nan;92409.53;4932790;29;20046;-63
2022/09/29 00:04:35;;;;;;;11.53;5.33;;;;;;;7.51;nan;92408.72;4932010;29;20047;-62
2022/09/29 00:07:01;;;;;;;8.88;4.88;;;;;;;7.55;nan;92401.19;4932358;29;20055;-62
2022/09/29 00:09:28;;;;;;;8.70;4.55;;;;;;;7.54;nan;92405.13;4932086;29;20063;-63
2022/09/29 00:11:55;;;;;;;8.73;4.43;;;;;;;7.54;nan;92407.09;4932479;29;20047;-62
2022/09/29 00:14:23;;;;;;;10.95;5.50;;;;;;;7.53;nan;92406.31;4932404;29;20088;-62
2022/09/29 00:16:51;;;;;;;9.43;4.83;;;;;;;7.59;nan;92403.84;4934478;29;20066;-62
2022/09/29 00:19:18;;;;;;;9.63;4.57;;;;;;;7.55;nan;92403.16;4936290;29;20054;-63
2022/09/29 00:21:45;;;;;;;11.02;5.00;;;;;;;7.55;nan;92397.72;4918920;29;20055;-62
2022/09/29 00:24:12;;;;;;;8.57;4.30;;;;;;;7.45;nan;92402.28;4936188;29;20419;-62
2022/09/29 00:26:38;;;;;;;8.30;4.53;;;;;;;7.54;nan;92396.16;4935643;29;20048;-62
2022/09/29 00:29:05;;;;;;;7.93;4.20;;;;;;;7.52;nan;92396.59;4936194;29;20043;-62
2022/09/29 00:31:33;;;;;;;8.30;4.50;;;;;;;7.60;nan;92397.91;4935863;29;20058;-63
2022/09/29 00:34:00;;;;;;;10.35;4.72;;;;;;;7.62;nan;92394.00;4936160;29;20062;-63
2022/09/29 00:36:29;;;;;;;10.70;4.57;;;;;;;7.52;nan;92404.03;4945298;28;20052;-62
2022/09/29 00:38:57;;;;;;;12.07;5.28;;;;;;;7.47;nan;92399.88;4936073;29;20040;-62
2022/09/29 00:41:27;;;;;;;42.57;21.93;;;;;;;7.49;nan;92396.72;4936030;29;20071;-62
2022/09/29 00:44:12;;;;;;;15.90;6.10;;;;;;;7.47;nan;92396.38;4927465;29;21607;-62
2022/09/29 00:47:04;;;;;;;13.25;5.50;;;;;;;7.33;nan;92400.28;4935383;29;20143;-62
2022/09/29 00:50:03;;;;;;;10.30;4.53;;;;;;;7.40;nan;92398.13;4935278;29;20050;-62
2022/09/29 00:52:41;;;;;;;12.45;5.05;;;;;;;7.41;nan;92393.41;4925436;29;20043;-62
2022/09/29 00:55:17;;;;;;;11.73;5.13;;;;;;;7.45;nan;92401.50;4935599;29;20040;-62
2022/09/29 00:57:50;;;;;;;9.27;4.72;;;;;;;7.54;nan;92402.38;4935301;29;20044;-62
2022/09/29 01:00:17;;;;;;;10.55;5.05;;;;;;;7.61;nan;92395.97;4935507;29;20058;-62
2022/09/29 01:03:04;;;;;;;9.43;4.65;;;;;;;7.77;nan;92393.16;4935057;29;20505;-62
2022/09/29 01:05:39;;;;;;;9.15;4.70;;;;;;;7.79;nan;92390.75;4934889;29;20050;-62
2022/09/29 01:08:21;;;;;;;9.63;4.67;;;;;;;7.64;nan;92392.38;4913668;29;20047;-62
2022/09/29 01:10:50;;;;;;;14.27;5.32;;;;;;;7.64;nan;92395.09;4933566;29;20050;-62
2022/09/29 01:13:18;;;;;;;12.95;5.68;;;;;;;7.68;nan;92395.00;4935567;29;20047;-62
2022/09/29 01:15:45;;;;;;;11.00;5.10;;;;;;;7.65;nan;92404.06;4934892;29;20054;-62
2022/09/29 01:18:12;;;;;;;16.90;6.15;;;;;;;7.66;nan;92391.94;4935525;29;20503;-62
2022/09/29 01:20:50;;;;;;;11.33;5.33;;;;;;;7.65;nan;92388.44;4934998;29;20050;-62
2022/09/29 01:23:43;;;;;;;11.60;5.00;;;;;;;7.76;nan;92394.34;4935260;29;20062;-62
2022/09/29 01:26:29;;;;;;;8.65;4.53;;;;;;;7.59;nan;92390.19;4899833;29;21435;-63
2022/09/29 01:29:17;;;;;;;15.90;9.30;;;;;;;7.56;nan;92383.59;4914340;29;20746;-62
2022/09/29 01:31:56;;;;;;;25.85;13.60;;;;;;;7.70;nan;92371.50;4915708;29;20082;-62
2022/09/29 01:34:57;;;;;;;11.53;5.47;;;;;;;7.78;nan;92372.06;4916153;29;20055;-62
2022/09/29 01:37:39;;;;;;;9.05;4.63;;;;;;;7.78;nan;92374.81;4901738;29;20607;-62
2022/09/29 01:40:15;;;;;;;9.60;4.85;;;;;;;7.55;nan;92362.22;4914971;29;20742;-63
2022/09/29 01:42:56;;;;;;;7.68;4.05;;;;;;;7.40;nan;92367.31;4925178;29;20044;-61
2022/09/29 01:45:32;;;;;;;8.73;3.90;;;;;;;7.27;nan;92361.06;4934894;29;20046;-63
2022/09/29 01:48:05;;;;;;;7.07;3.50;;;;;;;7.31;nan;92362.50;4933920;29;20056;-62
2022/09/29 01:50:39;;;;;;;8.25;3.80;;;;;;;7.58;nan;92370.28;4934549;29;20047;-62
2022/09/29 01:53:34;;;;;;;7.25;3.97;;;;;;;7.66;nan;92379.03;4934813;29;20106;-62
2022/09/29 01:56:06;;;;;;;11.48;4.88;;;;;;;7.68;nan;92375.88;4933699;29;20449;-62
2022/09/29 01:58:46;;;;;;;9.07;4.32;;;;;;;7.59;nan;92379.25;4933971;29;20046;-62
2022/09/29 02:01:16;;;;;;;7.80;4.20;;;;;;;7.60;nan;92372.59;4934531;29;20373;-62
2022/09/29 02:03:50;;;;;;;13.45;5.15;;;;;;;7.62;nan;92375.66;4933878;29;20398;-62
2022/09/29 02:06:23;;;;;;;10.27;4.72;;;;;;;7.72;nan;92376.53;4933284;29;20106;-62
2022/09/29 02:08:53;;;;;;;9.48;4.50;;;;;;;7.72;nan;92376.53;4928717;29;20046;-62
2022/09/29 02:11:21;;;;;;;8.88;4.50;;;;;;;7.74;nan;92376.88;4934478;29;20043;-63
2022/09/29 02:13:54;;;;;;;10.63;5.00;;;;;;;7.70;nan;92376.97;4934120;29;20047;-62
2022/09/29 02:16:27;;;;;;;11.02;5.47;;;;;;;7.65;nan;92366.59;4934290;29;20050;-62
2022/09/29 02:19:01;;;;;;;10.40;4.90;;;;;;;7.67;nan;92377.09;4933400;29;20640;-62
2022/09/29 02:21:27;;;;;;;10.30;4.47;;;;;;;7.71;nan;92373.06;4933567;29;20065;-62
2022/09/29 02:23:55;;;;;;;11.88;5.38;;;;;;;7.73;nan;92364.44;4934162;29;20040;-62
2022/09/29 02:26:24;;;;;;;11.23;5.50;;;;;;;7.77;nan;92362.38;4933711;29;20039;-62
2022/09/29 02:28:51;;;;;;;9.15;3.92;;;;;;;6.98;nan;92348.97;4933520;29;20396;-62
2022/09/29 02:31:18;;;;;;;8.10;4.32;;;;;;;6.89;nan;92361.69;4917128;29;20088;-62
2022/09/29 02:33:45;;;;;;;8.65;4.30;;;;;;;7.14;nan;92364.53;4933640;29;20056;-62
2022/09/29 02:36:19;;;;;;;8.02;4.25;;;;;;;7.21;nan;92363.56;4942524;28;20043;-62
2022/09/29 02:39:07;;;;;;;8.03;3.77;;;;;;;6.85;nan;92359.06;4933387;29;20518;-62
2022/09/29 02:42:02;;;;;;;12.05;3.95;;;;;;;6.62;nan;92354.59;4933315;29;20493;-62
2022/09/29 02:44:38;;;;;;;9.05;4.40;;;;;;;6.67;nan;92354.06;4933024;29;20046;-62
2022/09/29 02:47:48;;;;;;;7.93;3.97;;;;;;;7.17;nan;92360.16;4933743;29;20040;-62
2022/09/29 02:50:21;;;;;;;9.48;3.90;;;;;;;7.36;nan;92369.38;4888834;29;21561;-62
2022/09/29 02:53:00;;;;;;;9.47;4.30;;;;;;;7.39;nan;92366.53;4914348;29;20052;-62
2022/09/29 02:56:01;;;;;;;8.77;4.28;;;;;;;7.48;nan;92356.97;4914057;29;20110;-62
2022/09/29 02:58:40;;;;;;;7.68;4.00;;;;;;;7.52;nan;92346.69;4914164;29;20055;-63
2022/09/29 03:01:10;;;;;;;8.00;4.00;;;;;;;7.49;nan;92344.84;4914440;29;20063;-62
2022/09/29 03:03:37;;;;;;;9.50;4.63;;;;;;;7.59;nan;92338.31;4914081;29;20258;-62
2022/09/29 03:06:04;;;;;;;8.30;4.53;;;;;;;7.55;nan;92335.69;4911824;29;20490;-63
2022/09/29 03:08:32;;;;;;;8.55;4.40;;;;;;;7.58;nan;92337.53;4894770;29;20045;-62
2022/09/29 03:10:58;;;;;;;9.80;4.80;;;;;;;7.45;nan;92336.75;4914376;29;20052;-61
2022/09/29 03:13:25;;;;;;;8.95;4.65;;;;;;;7.31;nan;92335.19;4914397;29;20408;-61
2022/09/29 03:15:52;;;;;;;10.05;4.85;;;;;;;7.35;nan;92321.47;4913316;29;20040;-62
2022/09/29 03:18:21;;;;;;;7.67;3.40;;;;;;;7.20;nan;92323.81;4914249;29;20052;-62
2022/09/29 03:20:48;;;;;;;6.28;3.15;;;;;;;6.87;nan;92318.50;4913692;29;20102;-62
2022/09/29 03:23:15;;;;;;;7.38;3.65;;;;;;;6.90;nan;92317.63;4914185;29;20054;-63
2022/09/29 03:25:42;;;;;;;7.10;3.50;;;;;;;7.06;nan;92332.41;4913600;29;20046;-62
2022/09/29 03:28:09;;;;;;;7.85;3.67;;;;;;;7.15;nan;92329.81;4913908;29;20047;-63
2022/09/29 03:30:35;;;;;;;8.57;3.93;;;;;;;7.22;nan;92337.03;4913614;29;20048;-62
2022/09/29 03:33:02;;;;;;;8.57;4.00;;;;;;;7.22;nan;92334.31;4912748;29;20433;-62
2022/09/29 03:35:29;;;;;;;8.13;4.20;;;;;;;7.29;nan;92342.31;4913311;29;20040;-63
2022/09/29 03:37:58;;;;;;;6.40;3.35;;;;;;;7.15;nan;92346.19;4913902;29;20409;-62
2022/09/29 03:40:25;;;;;;;7.45;3.50;;;;;;;7.07;nan;92347.59;4913738;29;20052;-62
2022/09/29 03:42:52;;;;;;;5.80;3.07;;;;;;;7.12;nan;92347.03;4911689;29;20659;-62
2022/09/29 03:45:19;;;;;;;9.20;3.08;;;;;;;6.79;nan;92336.25;4913943;29;20490;-62
2022/09/29 03:47:46;;;;;;;7.32;3.40;;;;;;;6.59;nan;92330.91;4913404;29;20135;-62
2022/09/29 03:50:13;;;;;;;7.18;3.05;;;;;;;6.96;nan;92324.09;4913027;29;20052;-62
2022/09/29 03:52:39;;;;;;;6.45;3.30;;;;;;;6.95;nan;92321.78;4913299;29;20044;-63
2022/09/29 03:55:06;;;;;;;8.73;3.93;;;;;;;7.01;nan;92314.59;4913731;29;20050;-62
2022/09/29 03:57:33;;;;;;;21.67;11.75;;;;;;;7.14;nan;92331.78;4913004;29;20048;-62
2022/09/29 04:00:00;;;;;;;18.08;9.98;;;;;;;7.13;nan;92337.66;4913968;29;20478;-62
2022/09/29 04:02:27;;;;;;;17.75;11.43;;;;;;;7.07;nan;92331.22;4912930;29;20056;-61
2022/09/29 04:04:54;;;;;;;14.52;9.50;;;;;;;7.14;nan;92337.25;4913545;29;20056;-62
2022/09/29 04:07:21;;;;;;;9.87;5.93;;;;;;;7.19;nan;92344.88;4911760;29;20040;-63
2022/09/29 04:09:47;;;;;;;10.02;4.80;;;;;;;7.22;nan;92340.53;4913221;29;20048;-63
2022/09/29 04:12:14;;;;;;;8.90;4.22;;;;;;;7.12;nan;92347.03;4913245;29;20044;-62
2022/09/29 04:14:41;;;;;;;9.10;4.50;;;;;;;7.17;nan;92341.81;4912738;29;20066;-62
2022/09/29 04:17:07;;;;;;;11.57;5.38;;;;;;;7.27;nan;92342.72;4913271;29;20231;-63
2022/09/29 04:19:34;;;;;;;10.17;5.00;;;;;;;7.32;nan;92342.19;4912722;29;20080;-62
2022/09/29 04:22:01;;;;;;;13.52;6.22;;;;;;;7.35;nan;92340.56;4913250;29;20040;-62
2022/09/29 04:24:28;;;;;;;16.77;8.98;;;;;;;7.30;nan;92341.84;4911335;29;20052;-63
2022/09/29 04:26:54;;;;;;;12.02;5.97;;;;;;;7.25;nan;92336.19;4912921;29;20058;-62
2022/09/29 04:29:21;;;;;;;15.98;7.38;;;;;;;7.34;nan;92345.25;4913079;29;20114;-62
2022/09/29 04:31:48;;;;;;;13.70;6.40;;;;;;;7.39;nan;92339.25;4911327;29;20492;-63
2022/09/29 04:34:14;;;;;;;11.82;6.03;;;;;;;7.47;nan;92339.06;4911928;29;20696;-63
2022/09/29 04:36:44;;;;;;;11.57;6.07;;;;;;;7.52;nan;92335.78;4908461;29;20044;-63
2022/09/29 04:39:11;;;;;;;13.02;6.97;;;;;;;7.40;nan;92338.06;4912964;29;20063;-62
2022/09/29 04:41:40;;;;;;;12.93;6.60;;;;;;;7.22;nan;92345.97;4912566;29;20066;-62
2022/09/29 04:44:07;;;;;;;11.07;5.53;;;;;;;7.30;nan;92352.75;4912854;29;20048;-63
2022/09/29 04:46:33;;;;;;;11.15;5.30;;;;;;;7.40;nan;92351.72;4911467;29;20052;-62
2022/09/29 04:49:00;;;;;;;10.60;5.25;;;;;;;7.28;nan;92352.44;4913134;29;20051;-62
2022/09/29 04:51:27;;;;;;;10.18;5.22;;;;;;;7.38;nan;92351.38;4912941;29;20044;-62
2022/09/29 04:53:54;;;;;;;10.48;5.95;;;;;;;7.48;nan;92360.44;4912236;29;20418;-62
2022/09/29 04:56:20;;;;;;;12.83;6.43;;;;;;;7.51;nan;92354.13;4913043;29;20107;-63
2022/09/29 04:58:47;;;;;;;25.05;9.82;;;;;;;7.48;nan;92357.72;4912511;29;20138;-62
2022/09/29 05:01:14;;;;;;;18.20;8.30;;;;;;;7.33;nan;92359.34;4912978;29;20036;-62
2022/09/29 05:03:41;;;;;;;18.63;8.52;;;;;;;7.48;nan;92365.16;4915752;29;20054;-62
2022/09/29 05:06:09;;;;;;;16.30;8.77;;;;;;;7.31;nan;92356.28;4915999;29;20044;-62
2022/09/29 05:08:35;;;;;;;35.60;19.50;;;;;;;7.34;nan;92358.13;4915993;29;20044;-63
2022/09/29 05:11:05;;;;;;;17.65;9.20;;;;;;;7.37;nan;92355.31;4916113;29;20071;-63
2022/09/29 05:13:32;;;;;;;19.80;9.60;;;;;;;7.28;nan;92359.84;4915961;29;20044;-64
2022/09/29 05:15:59;;;;;;;16.70;8.40;;;;;;;7.32;nan;92358.53;4915977;29;20047;-63
2022/09/29 05:18:26;;;;;;;15.95;8.25;;;;;;;7.23;nan;92366.63;4914979;29;20063;-64
2022/09/29 05:20:54;;;;;;;15.20;7.83;;;;;;;7.30;nan;92376.56;4933981;29;20168;-62
2022/09/29 05:23:41;;;;;;;13.57;6.15;;;;;;;7.31;nan;92376.13;4934311;29;20514;-63
2022/09/29 05:26:10;;;;;;;13.85;6.53;;;;;;;7.16;nan;92374.97;4934417;29;20039;-63
2022/09/29 05:28:41;;;;;;;15.02;6.78;;;;;;;7.19;nan;92374.91;4933804;29;20050;-62
2022/09/29 05:31:08;;;;;;;14.18;7.25;;;;;;;7.37;nan;92371.69;4934398;29;20396;-62
2022/09/29 05:33:36;;;;;;;15.47;7.00;;;;;;;7.43;nan;92371.91;4933868;29;20067;-62
2022/09/29 05:36:10;;;;;;;13.30;6.40;;;;;;;7.51;nan;92367.78;4936566;29;20050;-62
2022/09/29 05:38:38;;;;;;;11.45;5.80;;;;;;;7.31;nan;92378.88;4933509;29;20063;-62
2022/09/29 05:41:09;;;;;;;10.13;5.50;;;;;;;7.28;nan;92385.16;4932921;29;20094;-62
2022/09/29 05:43:36;;;;;;;11.30;5.80;;;;;;;7.19;nan;92385.81;4933671;29;20442;-63
2022/09/29 05:46:04;;;;;;;11.60;5.23;;;;;;;6.95;nan;92382.56;4932323;29;20497;-64
2022/09/29 05:48:32;;;;;;;10.77;5.35;;;;;;;7.27;nan;92386.38;4932297;29;20047;-63
2022/09/29 05:51:05;;;;;;;15.13;8.15;;;;;;;7.26;nan;92384.09;4933335;29;20051;-64
2022/09/29 05:53:32;;;;;;;14.50;6.88;;;;;;;7.36;nan;92386.53;4932296;29;20451;-63
2022/09/29 05:56:03;;;;;;;13.93;6.65;;;;;;;7.50;nan;92387.31;4933172;29;20098;-62
2022/09/29 05:58:30;;;;;;;14.20;7.10;;;;;;;7.55;nan;92389.53;4930675;29;20039;-62
2022/09/29 06:00:57;;;;;;;12.50;6.60;;;;;;;7.58;nan;92383.94;4933336;29;20066;-62
2022/09/29 06:03:24;;;;;;;14.48;6.82;;;;;;;7.53;nan;92383.72;4933143;29;20257;-62
2022/09/29 06:05:51;;;;;;;13.60;6.65;;;;;;;7.66;nan;92395.41;4933077;29;20052;-62
2022/09/29 06:08:18;;;;;;;13.77;6.32;;;;;;;7.46;nan;92392.88;4933804;29;20078;-63
2022/09/29 06:10:44;;;;;;;13.07;6.40;;;;;;;7.63;nan;92393.56;4931620;29;20092;-63
2022/09/29 06:13:11;;;;;;;15.23;7.15;;;;;;;7.63;nan;92403.75;4900119;29;20048;-62
2022/09/29 06:15:38;;;;;;;13.90;6.82;;;;;;;7.69;nan;92397.31;4924276;29;20040;-62
2022/09/29 06:18:05;;;;;;;13.73;6.97;;;;;;;7.71;nan;92394.13;4933962;29;20052;-61
2022/09/29 06:20:37;;;;;;;17.63;7.95;;;;;;;7.76;nan;92390.84;4933737;29;20043;-63
2022/09/29 06:23:03;;;;;;;15.10;7.37;;;;;;;7.60;nan;92394.44;4933893;29;20066;-62
2022/09/29 06:25:30;;;;;;;14.80;6.90;;;;;;;7.50;nan;92399.00;4933343;29;20070;-62
2022/09/29 06:27:57;;;;;;;17.25;7.10;;;;;;;7.59;nan;92396.41;4921762;29;20507;-62
2022/09/29 06:30:24;;;;;;;17.83;7.13;;;;;;;7.60;nan;92394.44;4930276;29;20044;-63
2022/09/29 06:32:50;;;;;;;16.60;6.80;;;;;;;7.65;nan;92385.72;4933312;29;20413;-62
2022/09/29 06:38:03;;;;;;;16.73;7.45;;;;;;;7.95;nan;92392.63;4932781;29;20485;-62
2022/09/29 06:40:29;;;;;;;16.88;7.85;;;;;;;8.11;nan;92396.44;4933069;29;20062;-62
2022/09/29 06:42:56;;;;;;;18.80;8.15;;;;;;;7.96;nan;92394.16;4933637;29;20047;-62
2022/09/29 06:45:23;;;;;;;17.63;8.15;;;;;;;8.12;nan;92390.56;4933425;29;20039;-62
2022/09/29 06:47:50;;;;;;;15.27;7.17;;;;;;;8.12;nan;92393.28;4916066;29;20165;-62
2022/09/29 06:50:16;;;;;;;18.50;7.68;;;;;;;8.20;nan;92386.41;4933388;29;20043;-62
2022/09/29 06:52:45;;;;;;;16.67;7.75;;;;;;;8.13;nan;92391.31;4933036;29;20055;-62
2022/09/29 06:55:24;;;;;;;16.58;7.72;;;;;;;8.09;nan;92388.72;4933379;29;20043;-64
2022/09/29 06:57:51;;;;;;;16.70;8.32;;;;;;;8.18;nan;92394.28;4932538;29;20405;-62
2022/09/29 07:00:17;;;;;;;16.83;7.53;;;;;;;8.15;nan;92391.66;4933325;29;20047;-62
2022/09/29 07:02:45;;;;;;;15.88;7.22;;;;;;;8.36;nan;92395.69;4932624;29;20430;-63
2022/09/29 07:05:12;;;;;;;15.05;7.22;;;;;;;8.36;nan;92395.69;4916128;29;20040;-62
2022/09/29 07:07:39;;;;;;;16.08;7.10;;;;;;;8.60;nan;92407.06;4932412;29;20059;-64
2022/09/29 07:10:06;;;;;;;12.55;6.80;;;;;;;8.65;nan;92403.78;4933249;29;20043;-63
2022/09/29 07:12:33;;;;;;;15.20;6.80;;;;;;;8.58;nan;92395.81;4928289;29;20039;-62
2022/09/29 07:15:00;;;;;;;14.65;7.07;;;;;;;8.51;nan;92396.81;4932809;29;20485;-62
2022/09/29 07:17:27;;;;;;;14.20;6.55;;;;;;;8.71;nan;92398.50;4915994;29;20043;-63
2022/09/29 07:19:55;;;;;;;12.35;6.45;;;;;;;8.78;nan;92390.84;4932296;29;20757;-63
2022/09/29 07:22:22;;;;;;;11.93;5.78;;;;;;;8.73;nan;92390.63;4916250;29;20511;-62
2022/09/29 07:24:52;;;;;;;12.47;5.73;;;;;;;8.79;nan;92391.59;4931695;29;20054;-62
2022/09/29 07:27:23;;;;;;;13.00;5.70;;;;;;;8.62;nan;92390.22;4932248;29;20489;-63
2022/09/29 07:29:50;;;;;;;12.50;5.70;;;;;;;8.72;nan;92392.59;4932437;29;20044;-62
2022/09/29 07:32:31;;;;;;;9.93;5.20;;;;;;;8.50;nan;92405.44;4932238;29;20094;-62
2022/09/29 07:34:58;;;;;;;11.10;5.95;;;;;;;8.52;nan;92417.47;4933110;29;20046;-61
2022/09/29 07:37:26;;;;;;;11.07;5.70;;;;;;;8.43;nan;92416.59;4932811;29;20052;-62
2022/09/29 07:39:54;;;;;;;11.77;6.00;;;;;;;8.28;nan;92403.34;4931946;29;21861;-62
2022/09/29 07:42:20;;;;;;;12.32;6.40;;;;;;;8.13;nan;92400.28;4932547;29;20086;-62
2022/09/29 07:44:47;;;;;;;13.05;6.40;;;;;;;8.59;nan;92400.84;4932171;29;21029;-62
2022/09/29 07:47:18;;;;;;;11.60;5.50;;;;;;;9.35;nan;92404.56;4918143;29;20062;-62
2022/09/29 07:49:44;;;;;;;10.70;5.50;;;;;;;9.32;nan;92404.69;4931753;29;20062;-63
2022/09/29 07:52:12;;;;;;;10.15;5.70;;;;;;;9.56;nan;92405.78;4932341;29;20047;-62
2022/09/29 07:54:39;;;;;;;12.65;6.50;;;;;;;9.48;nan;92407.25;4931987;29;20424;-63
2022/09/29 07:57:06;;;;;;;10.43;5.57;;;;;;;9.51;nan;92414.56;4932409;29;20051;-62
2022/09/29 07:59:33;;;;;;;10.07;5.82;;;;;;;9.35;nan;92412.00;4931749;29;20046;-62
2022/09/29 08:02:01;;;;;;;11.77;5.30;;;;;;;9.24;nan;92400.69;4932050;29;20070;-63
2022/09/29 08:04:28;;;;;;;11.77;5.85;;;;;;;9.04;nan;92406.44;4931744;29;20055;-63
2022/09/29 08:06:55;;;;;;;11.85;5.93;;;;;;;9.60;nan;92413.88;4932416;29;20050;-63
2022/09/29 08:09:23;;;;;;;12.20;5.75;;;;;;;9.73;nan;92411.06;4915325;29;20039;-63
2022/09/29 08:12:01;;;;;;;10.73;5.68;;;;;;;9.55;nan;92406.97;4930188;29;20794;-62
2022/09/29 08:14:34;;;;;;;14.53;7.00;;;;;;;9.73;nan;92422.03;4931413;29;20052;-61
2022/09/29 08:17:01;;;;;;;13.25;6.65;;;;;;;9.39;nan;92423.59;4931975;29;20404;-63
2022/09/29 08:19:27;;;;;;;13.82;6.53;;;;;;;9.34;nan;92426.91;4931421;29;20117;-62
2022/09/29 08:21:54;;;;;;;12.45;6.22;;;;;;;9.52;nan;92431.78;4915432;29;20043;-62
2022/09/29 08:24:21;;;;;;;10.32;5.90;;;;;;;9.53;nan;92438.75;4931901;29;20416;-62
2022/09/29 08:26:48;;;;;;;10.30;5.47;;;;;;;9.57;nan;92442.16;4911344;29;20409;-62
2022/09/29 08:29:15;;;;;;;9.48;5.47;;;;;;;9.37;nan;92445.94;4913139;29;20043;-62
2022/09/29 08:31:43;;;;;;;11.32;6.50;;;;;;;9.53;nan;92444.25;4910792;29;20056;-62
2022/09/29 08:34:12;;;;;;;8.77;4.95;;;;;;;9.55;nan;92450.03;4894429;29;20076;-63
2022/09/29 08:36:39;;;;;;;7.38;4.45;;;;;;;9.61;nan;92448.25;4903998;29;20048;-62
2022/09/29 08:39:06;;;;;;;7.93;4.40;;;;;;;9.64;nan;92454.81;4898120;29;20048;-63
2022/09/29 08:41:49;;;;;;;6.50;3.67;;;;;;;9.95;nan;92465.84;4897496;29;20059;-62
2022/09/29 08:44:16;;;;;;;7.40;3.80;;;;;;;10.09;nan;92461.81;4897945;29;20399;-61
2022/09/29 08:47:07;;;;;;;9.35;3.92;;;;;;;9.90;nan;92466.41;4884534;29;20675;-62
2022/09/29 08:49:41;;;;;;;9.27;4.13;;;;;;;9.97;nan;92455.19;4897447;29;20059;-62
2022/09/29 08:52:14;;;;;;;10.23;4.60;;;;;;;9.89;nan;92467.63;4885241;29;20041;-62
2022/09/29 08:54:45;;;;;;;8.45;4.47;;;;;;;10.23;nan;92471.50;4897376;29;20482;-62
2022/09/29 08:57:20;;;;;;;6.22;3.67;;;;;;;10.15;nan;92474.50;4897724;29;20044;-62
2022/09/29 08:59:58;;;;;;;6.18;3.35;;;;;;;10.65;nan;92471.13;4897614;29;20045;-62
2022/09/29 09:02:58;;;;;;;7.20;4.07;;;;;;;10.54;nan;92475.03;4897848;29;20044;-62
2022/09/29 09:05:43;;;;;;;8.53;3.70;;;;;;;10.45;nan;92477.72;4896390;29;20296;-62
2022/09/29 09:08:34;;;;;;;7.72;3.45;;;;;;;10.35;nan;92481.66;4896635;29;20656;-61
2022/09/29 09:11:28;;;;;;;5.97;3.03;;;;;;;10.50;nan;92481.88;4896548;29;20593;-61
2022/09/29 09:14:32;;;;;;;6.60;3.28;;;;;;;10.43;nan;92479.41;4896696;29;20452;-62
2022/09/29 09:17:21;;;;;;;6.25;3.35;;;;;;;10.46;nan;92478.50;4895473;29;20685;-62
2022/09/29 09:20:02;;;;;;;7.03;2.90;;;;;;;10.13;nan;92487.13;4897404;29;20048;-62
2022/09/29 09:22:44;;;;;;;5.70;2.83;;;;;;;10.24;nan;92483.97;4896750;29;20430;-62
2022/09/29 09:25:31;;;;;;;5.25;2.75;;;;;;;10.29;nan;92486.91;4897269;29;20048;-62
2022/09/29 09:28:03;;;;;;;6.30;2.90;;;;;;;10.55;nan;92484.03;4911707;29;21487;-62
2022/09/29 09:30:45;;;;;;;5.45;2.67;;;;;;;10.28;nan;92485.41;4915697;29;20498;-62
2022/09/29 09:33:25;;;;;;;6.17;3.10;;;;;;;10.63;nan;92488.03;4915936;29;20040;-62
2022/09/29 09:36:03;;;;;;;6.68;3.40;;;;;;;10.70;nan;92485.00;4915883;29;20820;-63
2022/09/29 09:38:45;;;;;;;5.70;3.35;;;;;;;10.69;nan;92490.97;4915054;29;20067;-62
2022/09/29 09:41:18;;;;;;;6.00;3.33;;;;;;;10.84;nan;92480.19;4919850;29;20044;-62
2022/09/29 09:43:55;;;;;;;5.50;3.10;;;;;;;10.97;nan;92486.31;4934021;29;20051;-62
2022/09/29 09:46:40;;;;;;;5.97;3.40;;;;;;;11.03;nan;92481.78;4934529;29;20048;-63
2022/09/29 09:49:19;;;;;;;5.30;3.03;;;;;;;11.63;nan;92479.72;4933168;29;20704;-63
2022/09/29 09:51:58;;;;;;;4.88;2.65;;;;;;;11.46;nan;92488.25;4933937;29;20420;-62
2022/09/29 09:54:30;;;;;;;5.53;2.70;;;;;;;11.72;nan;92480.47;4934334;29;20114;-63
2022/09/29 09:57:29;;;;;;;4.90;2.60;;;;;;;11.89;nan;92477.44;4933390;29;20411;-62
2022/09/29 09:59:56;;;;;;;5.37;2.70;;;;;;;12.57;nan;92474.41;4933762;29;21440;-62
2022/09/29 10:02:23;;;;;;;5.95;2.72;;;;;;;12.56;nan;92479.16;4934312;29;20058;-62
2022/09/29 10:04:52;;;;;;;5.10;2.60;;;;;;;12.68;nan;92473.94;4933819;29;20047;-62
2022/09/29 10:07:21;;;;;;;6.53;2.70;;;;;;;12.48;nan;92471.72;4934518;29;20464;-62
2022/09/29 10:09:47;;;;;;;5.88;2.95;;;;;;;11.43;nan;92480.16;4934081;29;20124;-62
2022/09/29 10:12:20;;;;;;;4.53;2.67;;;;;;;12.31;nan;92485.03;4934132;29;20524;-62
2022/09/29 10:14:56;;;;;;;4.22;2.10;;;;;;;12.51;nan;92484.53;4933608;29;20054;-62
2022/09/29 10:17:26;;;;;;;4.28;2.22;;;;;;;13.06;nan;92481.59;4934336;29;20047;-62
2022/09/29 10:20:03;;;;;;;4.53;2.10;;;;;;;13.69;nan;92484.44;4933486;29;21547;-62
2022/09/29 10:22:30;;;;;;;5.57;2.10;;;;;;;13.93;nan;92487.16;4933615;29;20066;-63
2022/09/29 10:25:18;;;;;;;4.33;2.30;;;;;;;13.94;nan;92485.16;4916825;29;20501;-62
2022/09/29 10:27:49;;;;;;;4.78;2.50;;;;;;;13.93;nan;92480.91;4933535;29;20051;-63
2022/09/29 10:30:31;;;;;;;4.70;2.50;;;;;;;13.70;nan;92479.69;4933874;29;20040;-63
2022/09/29 10:33:01;;;;;;;4.30;2.00;;;;;;;13.77;nan;92488.34;4932572;29;20702;-63
2022/09/29 10:35:37;;;;;;;5.90;2.55;;;;;;;12.94;nan;92491.56;4936958;29;20057;-62
2022/09/29 10:38:26;;;;;;;3.57;1.90;;;;;;;12.55;nan;92485.88;4933831;29;20039;-63
2022/09/29 10:41:00;;;;;;;3.78;2.03;;;;;;;12.75;nan;92490.13;4931345;29;20684;-62
2022/09/29 10:43:33;;;;;;;4.95;1.90;;;;;;;13.09;nan;92490.91;4933869;29;20046;-62
2022/09/29 10:45:59;;;;;;;3.25;1.80;;;;;;;13.31;nan;92485.91;4932580;29;20460;-62
2022/09/29 10:48:26;;;;;;;3.60;1.60;;;;;;;13.51;nan;92488.06;4933687;29;20054;-63
2022/09/29 10:50:58;;;;;;;2.60;1.30;;;;;;;13.31;nan;92498.91;4932663;29;20252;-62
2022/09/29 10:53:42;;;;;;;4.05;1.50;;;;;;;13.30;nan;92489.13;4932985;29;20040;-62
2022/09/29 10:56:21;;;;;;;3.80;1.83;;;;;;;13.12;nan;92492.69;4916405;29;20044;-63
2022/09/29 10:58:54;;;;;;;3.35;1.77;;;;;;;13.59;nan;92494.75;4933014;29;20077;-63
2022/09/29 11:01:34;;;;;;;4.18;1.70;;;;;;;14.45;nan;92486.09;4932775;29;20055;-63
2022/09/29 11:04:05;;;;;;;2.87;1.50;;;;;;;12.85;nan;92488.09;4933513;29;20539;-63
2022/09/29 11:06:38;;;;;;;3.22;1.60;;;;;;;13.21;nan;92489.16;4932755;29;20065;-62
2022/09/29 11:09:12;;;;;;;5.32;1.95;;;;;;;13.94;nan;92487.91;4933056;29;20357;-62
2022/09/29 11:11:52;;;;;;;4.32;1.73;;;;;;;13.88;nan;92498.84;4932533;29;20047;-62
2022/09/29 11:14:34;;;;;;;4.38;2.75;;;;;;;13.41;nan;92489.38;4916962;29;20047;-63
2022/09/29 11:17:18;;;;;;;5.50;2.40;;;;;;;13.75;nan;92481.78;4932182;29;20079;-63
2022/09/29 11:19:45;;;;;;;3.00;1.67;;;;;;;13.29;nan;92493.88;4932536;29;20044;-63
2022/09/29 11:22:27;;;;;;;2.78;1.50;;;;;;;13.82;nan;92495.22;4933042;29;20048;-62
2022/09/29 11:25:17;;;;;;;3.88;2.03;;;;;;;14.27;nan;92487.78;4915094;29;20763;-63
2022/09/29 11:28:11;;;;;;;3.38;1.65;;;;;;;14.23;nan;92492.00;4932375;29;20497;-63
2022/09/29 11:30:53;;;;;;;2.60;1.30;;;;;;;13.34;nan;92495.22;4932282;29;20055;-63
2022/09/29 11:33:34;;;;;;;2.67;1.00;;;;;;;13.45;nan;92491.97;4932678;29;20051;-63
2022/09/29 11:36:27;;;;;;;4.30;1.15;;;;;;;14.02;nan;92491.84;4919343;29;20047;-64
2022/09/29 11:39:05;;;;;;;2.83;1.25;;;;;;;13.68;nan;92493.97;4897660;29;21741;-63
2022/09/29 11:41:55;;;;;;;3.03;1.30;;;;;;;13.31;nan;92496.91;4930568;29;20051;-62
2022/09/29 11:44:44;;;;;;;3.30;1.20;;;;;;;13.31;nan;92496.16;4919154;29;20138;-63
2022/09/29 11:47:28;;;;;;;2.20;1.00;;;;;;;13.22;nan;92493.41;4931821;29;20736;-63
2022/09/29 11:50:20;;;;;;;2.92;1.20;;;;;;;12.74;nan;92489.34;4931708;29;20618;-63
2022/09/29 11:53:05;;;;;;;3.17;1.10;;;;;;;12.49;nan;92489.72;4932037;29;20464;-62
2022/09/29 11:56:07;;;;;;;2.67;1.20;;;;;;;12.88;nan;92489.94;4931623;29;20062;-63
2022/09/29 11:58:45;;;;;;;3.20;1.07;;;;;;;13.64;nan;92492.59;4931832;29;20055;-64
2022/09/29 12:01:51;;;;;;;2.17;0.90;;;;;;;13.16;nan;92485.06;4932116;29;20054;-62
2022/09/29 12:04:20;;;;;;;2.25;1.15;;;;;;;13.10;nan;92492.41;4912455;29;20688;-62
2022/09/29 12:07:04;;;;;;;2.20;1.00;;;;;;;13.76;nan;92486.84;4931788;29;20379;-62
2022/09/29 12:09:36;;;;;;;2.40;1.05;;;;;;;13.90;nan;92490.09;4931860;29;20040;-62
2022/09/29 12:12:17;;;;;;;3.27;1.03;;;;;;;13.24;nan;92488.22;4931922;29;20048;-62
2022/09/29 12:15:16;;;;;;;3.25;1.00;;;;;;;13.23;nan;92498.47;4932021;29;20047;-63
2022/09/29 12:18:07;;;;;;;2.83;1.35;;;;;;;13.24;nan;92494.50;4916021;29;20052;-62
2022/09/29 12:20:38;;;;;;;3.47;1.30;;;;;;;13.19;nan;92498.63;4932041;29;20054;-61
2022/09/29 12:23:10;;;;;;;2.58;1.25;;;;;;;13.12;nan;92500.97;4932283;29;20054;-62